Time;durP1;ratioP1;P1;durP2;ratioP2;P2;SDS_P1;SDS_P2;PMS_P1;PMS_P2;Temp;Humidity;BMP_temperature;BMP_pressure;BME280_temperature;BME280_humidity;BME280_pressure;Samples;Min_cycle;Max_cycle;Signal;HPM_P1;HPM_P2
2021/05/20 00:00:10;;;;;;;8.40;5.70;;;;;;;9.84;79.00;98121.05;125950;1103;24379;-79
2021/05/20 00:02:57;;;;;;;;;;;;;;;9.84;79.68;98118.33;126298;1096;25868;-79
2021/05/20 00:05:25;;;;;;;8.05;5.15;;;;;;;9.82;79.58;98115.03;125996;1101;21461;-78
2021/05/20 00:07:53;;;;;;;10.60;5.30;;;;;;;9.82;80.08;98112.31;125907;1096;22740;-78
2021/05/20 00:10:20;;;;;;;7.80;5.10;;;;;;;9.84;79.35;98112.88;126269;1095;26241;-78
2021/05/20 00:13:02;;;;;;;9.20;5.80;;;;;;;9.83;79.89;98120.23;126085;1101;22809;-78
2021/05/20 00:15:29;;;;;;;9.65;5.75;;;;;;;9.84;79.56;98126.48;126233;1096;26235;-78
2021/05/20 00:17:57;;;;;;;8.90;5.60;;;;;;;9.82;79.56;98121.29;126191;1095;27119;-78
2021/05/20 00:20:25;;;;;;;7.65;5.05;;;;;;;9.80;79.63;98120.72;126175;1096;26256;-78
2021/05/20 00:22:52;;;;;;;9.87;4.83;;;;;;;9.79;79.38;98115.52;126087;1101;22765;-78
2021/05/20 00:25:20;;;;;;;10.40;5.17;;;;;;;9.76;79.47;98121.48;126292;1101;22740;-78
2021/05/20 00:27:47;;;;;;;9.50;5.80;;;;;;;9.75;79.64;98119.82;126020;1095;26241;-78
2021/05/20 00:30:15;;;;;;;9.85;5.40;;;;;;;9.73;80.10;98122.78;125917;1101;22743;-78
2021/05/20 00:32:43;;;;;;;10.27;5.80;;;;;;;9.72;79.88;98128.47;125963;1096;25937;-78
2021/05/20 00:35:11;;;;;;;6.80;5.60;;;;;;;9.72;79.87;98125.75;125971;1101;22893;-78
2021/05/20 00:37:39;;;;;;;9.05;5.75;;;;;;;9.68;79.79;98126.27;126207;1101;22846;-78
2021/05/20 00:40:08;;;;;;;7.65;5.60;;;;;;;9.70;79.93;98125.99;125971;1096;27119;-79
2021/05/20 00:42:35;;;;;;;10.65;6.33;;;;;;;9.67;79.86;98129.23;125930;1096;25880;-78
2021/05/20 00:45:06;;;;;;;8.60;5.90;;;;;;;9.67;80.03;98126.51;126168;1101;22772;-78
2021/05/20 00:47:34;;;;;;;8.80;6.30;;;;;;;9.66;80.58;98125.66;125939;1101;22832;-78
2021/05/20 00:50:05;;;;;;;8.95;5.35;;;;;;;9.65;80.07;98126.75;126029;1101;22826;-78
2021/05/20 00:52:33;;;;;;;8.60;5.20;;;;;;;9.63;80.09;98128.05;125968;1096;26709;-78
2021/05/20 00:55:04;;;;;;;8.43;5.77;;;;;;;9.59;80.31;98127.72;125947;1096;22765;-78
2021/05/20 00:57:31;;;;;;;9.60;6.10;;;;;;;9.57;80.35;98127.16;125912;1096;27119;-78
2021/05/20 01:00:11;;;;;;;9.55;6.75;;;;;;;9.56;80.58;98130.11;126159;1096;22748;-78
2021/05/20 01:02:40;;;;;;;11.00;6.27;;;;;;;9.54;80.62;98124.92;126169;1096;26308;-79
2021/05/20 01:05:13;;;;;;;10.33;6.73;;;;;;;9.55;80.14;98136.64;126192;1101;22758;-79
2021/05/20 01:07:42;;;;;;;9.15;6.53;;;;;;;9.54;80.92;98134.97;126475;1096;23341;-79
2021/05/20 01:10:10;;;;;;;10.60;7.40;;;;;;;9.54;80.51;98138.51;126380;1096;22765;-79
2021/05/20 01:12:39;;;;;;;11.73;7.90;;;;;;;9.52;80.07;98146.09;126203;1101;22750;-79
2021/05/20 01:15:21;;;;;;;9.53;6.70;;;;;;;9.45;80.42;98132.66;126218;1096;27144;-79
2021/05/20 01:17:54;;;;;;;8.33;5.67;;;;;;;9.40;80.59;98135.31;125988;1103;22758;-78
2021/05/20 01:20:30;;;;;;;8.87;6.80;;;;;;;9.36;80.36;98138.75;126320;1101;22891;-78
2021/05/20 01:23:08;;;;;;;10.40;6.80;;;;;;;9.31;80.53;98134.88;126278;1096;22798;-78
2021/05/20 01:25:37;;;;;;;11.70;7.25;;;;;;;9.28;80.49;98138.08;126146;1101;22844;-79
2021/05/20 01:28:22;;;;;;;12.55;6.40;;;;;;;9.30;80.28;98130.50;126067;1096;22774;-79
2021/05/20 01:30:50;;;;;;;9.00;6.45;;;;;;;9.27;80.36;98127.45;126120;1101;22758;-78
2021/05/20 01:33:18;;;;;;;8.30;6.25;;;;;;;9.23;80.19;98137.17;126112;1101;22734;-78
2021/05/20 01:35:46;;;;;;;10.00;6.90;;;;;;;9.16;80.97;98134.59;125818;1095;26088;-78
2021/05/20 01:40:57;;;;;;;9.45;6.65;;;;;;;9.09;80.76;98142.08;126055;1101;22793;-78
2021/05/20 01:43:40;;;;;;;11.50;7.20;;;;;;;9.07;81.32;98133.35;126095;1101;22737;-78
2021/05/20 01:46:08;;;;;;;8.27;5.60;;;;;;;9.01;81.63;98139.73;126182;1101;24404;-78
2021/05/20 01:48:40;;;;;;;9.37;6.73;;;;;;;8.92;81.26;98140.14;126057;1101;22740;-78
2021/05/20 01:51:15;;;;;;;12.43;7.43;;;;;;;8.89;82.04;98142.52;126103;1095;27256;-78
2021/05/20 01:53:45;;;;;;;10.60;7.50;;;;;;;8.84;81.71;98137.80;126151;1096;26239;-78
2021/05/20 01:56:18;;;;;;;9.65;6.40;;;;;;;8.80;82.20;98142.08;126110;1101;22740;-78
2021/05/20 01:59:00;;;;;;;9.80;7.55;;;;;;;8.75;82.11;98139.26;126059;1101;24563;-78
2021/05/20 02:01:27;;;;;;;9.60;7.00;;;;;;;8.69;82.15;98137.48;126071;1101;22758;-78
2021/05/20 02:03:55;;;;;;;12.77;7.63;;;;;;;8.62;81.70;98139.52;125862;1102;22825;-78
2021/05/20 02:06:23;;;;;;;10.13;6.70;;;;;;;8.59;82.08;98143.55;126074;1101;22765;-78
2021/05/20 02:08:51;;;;;;;11.10;6.57;;;;;;;8.54;82.04;98152.41;125833;1097;27139;-78
2021/05/20 02:11:19;;;;;;;9.70;6.30;;;;;;;8.50;82.09;98147.70;125844;1101;22800;-78
2021/05/20 02:13:46;;;;;;;8.90;5.90;;;;;;;8.44;81.91;98145.94;126079;1096;25919;-78
2021/05/20 02:16:14;;;;;;;11.30;7.20;;;;;;;8.40;82.66;98142.84;126116;1101;22781;-79
2021/05/20 02:18:55;;;;;;;9.80;7.20;;;;;;;8.36;82.74;98147.92;126100;1101;22741;-79
2021/05/20 02:21:23;;;;;;;12.53;6.60;;;;;;;8.33;82.55;98153.00;126098;1101;24390;-79
2021/05/20 02:24:05;;;;;;;7.23;5.63;;;;;;;8.29;82.86;98149.13;125841;1096;26226;-78
2021/05/20 02:26:33;;;;;;;11.00;7.28;;;;;;;8.25;82.52;98153.35;125868;1101;22762;-79
2021/05/20 02:29:00;;;;;;;9.57;6.67;;;;;;;8.20;82.23;98155.95;126078;1101;22744;-78
2021/05/20 02:31:28;;;;;;;9.47;5.90;;;;;;;8.19;82.86;98152.42;126056;1096;27432;-78
2021/05/20 02:33:58;;;;;;;8.20;5.80;;;;;;;8.17;82.49;98158.08;126075;1101;22758;-78
2021/05/20 02:36:25;;;;;;;;;;;;;;;8.14;83.17;98155.86;126086;1101;24418;-78
2021/05/20 02:38:53;;;;;;;9.00;5.80;;;;;;;8.12;82.54;98152.53;126050;1101;24198;-78
2021/05/20 02:41:20;;;;;;;11.15;6.70;;;;;;;8.12;82.93;98163.38;125862;1101;22771;-78
2021/05/20 02:43:47;;;;;;;9.90;7.00;;;;;;;8.10;82.62;98154.66;125797;1096;26206;-78
2021/05/20 02:46:15;;;;;;;13.10;6.80;;;;;;;8.10;82.83;98162.80;126045;1101;22761;-78
2021/05/20 02:48:43;;;;;;;11.07;6.60;;;;;;;8.10;82.81;98153.84;126063;1101;22740;-78
2021/05/20 02:51:11;;;;;;;12.60;7.10;;;;;;;8.09;82.70;98157.61;125799;1096;22737;-78
2021/05/20 02:53:38;;;;;;;10.87;7.40;;;;;;;8.07;83.04;98151.59;125797;1103;22743;-78
2021/05/20 02:56:06;;;;;;;10.97;5.37;;;;;;;8.06;83.20;98156.20;126087;1101;22740;-78
2021/05/20 02:58:33;;;;;;;8.47;5.90;;;;;;;8.06;83.22;98155.39;125832;1096;26216;-78
2021/05/20 03:01:01;;;;;;;10.25;7.25;;;;;;;8.07;83.01;98165.16;126115;1101;22761;-79
2021/05/20 03:03:29;;;;;;;7.50;5.47;;;;;;;8.07;82.93;98173.30;126107;1096;26198;-78
2021/05/20 03:05:58;;;;;;;8.13;4.65;;;;;;;8.06;82.62;98169.77;126039;1096;22719;-78
2021/05/20 03:08:40;;;;;;;9.60;6.27;;;;;;;8.04;82.84;98180.03;126099;1101;22935;-78
2021/05/20 03:11:07;;;;;;;7.13;6.03;;;;;;;8.04;83.62;98171.05;125867;1101;24510;-78
2021/05/20 03:13:35;;;;;;;8.55;6.00;;;;;;;8.00;83.20;98176.12;125792;1097;28622;-78
2021/05/20 03:16:03;;;;;;;9.55;5.70;;;;;;;8.00;83.44;98178.83;126071;1101;24573;-78
2021/05/20 03:18:30;;;;;;;8.60;6.00;;;;;;;7.97;82.80;98177.42;126042;1101;22765;-79
2021/05/20 03:20:58;;;;;;;7.60;5.70;;;;;;;7.99;83.28;98188.86;125777;1096;26229;-78
2021/05/20 03:23:26;;;;;;;10.45;6.40;;;;;;;8.03;83.69;98182.97;125889;1101;22758;-78
2021/05/20 03:25:53;;;;;;;8.67;5.70;;;;;;;8.06;83.30;98187.94;126251;1101;22887;-78
2021/05/20 03:28:35;;;;;;;9.65;5.85;;;;;;;8.09;83.18;98191.00;125852;1101;22751;-78
2021/05/20 03:31:03;;;;;;;9.95;6.45;;;;;;;8.13;83.13;98192.17;125807;1096;22758;-78
2021/05/20 03:33:31;;;;;;;10.90;6.57;;;;;;;8.17;83.24;98195.23;126109;1101;24415;-78
2021/05/20 03:35:58;;;;;;;11.37;6.63;;;;;;;8.21;83.56;98190.98;126083;1096;25858;-78
2021/05/20 03:38:26;;;;;;;8.57;5.93;;;;;;;8.25;82.86;98189.47;125848;1101;22799;-78
2021/05/20 03:40:53;;;;;;;12.15;6.15;;;;;;;8.32;83.01;98194.75;125915;1103;22761;-78
2021/05/20 03:43:21;;;;;;;8.75;6.10;;;;;;;8.34;83.10;98193.47;125825;1096;27129;-78
2021/05/20 03:46:03;;;;;;;8.10;5.87;;;;;;;8.38;82.54;98196.53;126049;1101;22744;-78
2021/05/20 03:48:31;;;;;;;6.80;4.93;;;;;;;8.42;82.47;98195.02;126018;1101;22745;-78
2021/05/20 03:51:13;;;;;;;7.70;5.17;;;;;;;8.44;82.48;98192.88;125830;1101;22818;-78
2021/05/20 03:53:40;;;;;;;7.60;5.15;;;;;;;8.48;82.63;98193.23;126098;1096;26236;-78
2021/05/20 03:56:08;;;;;;;8.70;5.63;;;;;;;8.51;82.18;98196.30;126097;1101;22733;-78
2021/05/20 03:58:35;;;;;;;9.30;5.43;;;;;;;8.55;82.29;98196.64;126037;1096;27144;-78
2021/05/20 04:01:03;;;;;;;6.70;4.63;;;;;;;8.59;82.19;98196.98;126009;1102;22758;-78
2021/05/20 04:03:32;;;;;;;9.43;5.70;;;;;;;8.61;82.36;98209.27;125902;1103;22758;-78
2021/05/20 04:06:01;;;;;;;;;;;;;;;8.65;82.13;98205.02;126160;1101;24374;-78
2021/05/20 04:08:28;;;;;;;9.40;6.08;;;;;;;8.69;82.38;98208.92;126058;1101;22871;-78
2021/05/20 04:10:57;;;;;;;8.50;4.90;;;;;;;8.74;82.67;98210.89;126101;1101;22740;-78
2021/05/20 04:13:41;;;;;;;8.83;5.40;;;;;;;8.78;82.48;98206.63;125949;1101;22800;-78
2021/05/20 04:16:15;;;;;;;7.53;5.50;;;;;;;8.84;82.59;98218.45;126269;1101;22784;-78
2021/05/20 04:18:44;;;;;;;9.90;5.50;;;;;;;8.89;81.76;98213.13;126179;1101;22765;-78
2021/05/20 04:21:11;;;;;;;7.67;5.00;;;;;;;8.93;81.27;98217.00;126057;1101;24375;-78
2021/05/20 04:23:43;;;;;;;5.80;4.73;;;;;;;8.98;81.41;98230.69;125815;1102;22746;-78
2021/05/20 04:26:11;;;;;;;9.03;6.57;;;;;;;9.04;81.96;98223.46;126052;1096;26249;-78
2021/05/20 04:28:39;;;;;;;11.00;6.45;;;;;;;9.11;81.81;98216.00;126054;1101;22889;-78
2021/05/20 04:31:07;;;;;;;8.90;5.25;;;;;;;9.17;81.59;98217.77;125883;1101;22797;-78
2021/05/20 04:33:34;;;;;;;7.15;5.30;;;;;;;9.24;81.06;98221.16;126110;1096;26214;-78
2021/05/20 04:36:02;;;;;;;9.95;5.55;;;;;;;9.34;81.21;98222.42;125898;1101;24132;-78
2021/05/20 04:38:29;;;;;;;7.60;5.60;;;;;;;9.40;81.63;98227.71;126128;1101;22895;-78
2021/05/20 04:40:57;;;;;;;6.80;5.25;;;;;;;9.50;81.33;98222.44;126073;1101;22743;-78
2021/05/20 04:43:25;;;;;;;9.10;6.20;;;;;;;9.60;80.36;98229.97;125828;1096;26203;-78
2021/05/20 04:45:53;;;;;;;8.93;6.50;;;;;;;9.69;80.58;98225.78;126086;1101;22787;-79
2021/05/20 04:48:21;;;;;;;6.93;5.20;;;;;;;9.77;79.51;98234.61;126226;1101;22738;-79
2021/05/20 04:50:48;;;;;;;7.47;4.73;;;;;;;9.84;79.53;98230.68;126167;1096;22785;-79
2021/05/20 04:53:16;;;;;;;7.50;6.00;;;;;;;9.93;78.54;98232.97;125848;1101;22809;-79
2021/05/20 04:55:44;;;;;;;7.80;4.75;;;;;;;10.01;79.29;98238.02;126075;1096;27211;-79
2021/05/20 04:58:11;;;;;;;6.70;4.70;;;;;;;10.07;79.03;98239.73;126095;1101;22758;-78
2021/05/20 05:00:39;;;;;;;7.13;4.73;;;;;;;10.13;78.69;98235.20;126062;1101;22761;-78
2021/05/20 05:03:06;;;;;;;9.53;5.33;;;;;;;10.17;78.02;98237.19;126053;1101;22752;-78
2021/05/20 05:05:34;;;;;;;7.37;5.23;;;;;;;10.20;77.87;98244.05;126061;1101;22758;-78
2021/05/20 05:08:02;;;;;;;7.15;4.70;;;;;;;10.26;78.04;98248.48;125837;1096;26200;-78
2021/05/20 05:10:29;;;;;;;6.85;4.55;;;;;;;10.31;78.37;98248.59;125866;1101;23524;-78
2021/05/20 05:13:11;;;;;;;8.33;5.43;;;;;;;10.36;78.12;98251.40;126046;1101;22900;-78
2021/05/20 05:15:39;;;;;;;6.45;4.55;;;;;;;10.41;77.27;98254.20;125841;1101;22738;-78
2021/05/20 05:18:06;;;;;;;10.00;4.80;;;;;;;10.44;76.60;98248.23;125834;1097;25858;-78
2021/05/20 05:20:34;;;;;;;6.45;5.55;;;;;;;10.48;76.55;98245.02;125861;1096;22755;-79
2021/05/20 05:23:04;;;;;;;10.45;4.90;;;;;;;10.52;76.87;98238.02;125812;1102;22756;-78
2021/05/20 05:25:32;;;;;;;11.80;4.97;;;;;;;10.57;77.43;98246.24;126040;1101;24370;-78
2021/05/20 05:27:59;;;;;;;8.50;5.23;;;;;;;10.68;76.79;98247.20;126014;1101;22752;-78
2021/05/20 05:30:27;;;;;;;7.80;4.95;;;;;;;10.75;76.68;98251.42;126234;1097;23531;-78
2021/05/20 05:32:54;;;;;;;6.13;4.40;;;;;;;10.83;76.86;98250.16;126216;1101;22750;-78
2021/05/20 05:35:22;;;;;;;6.33;5.03;;;;;;;10.87;76.89;98245.02;126030;1101;22731;-78
2021/05/20 05:37:49;;;;;;;6.95;4.40;;;;;;;10.89;76.52;98259.21;126151;1101;22761;-78
2021/05/20 05:40:17;;;;;;;7.87;4.97;;;;;;;10.92;76.31;98251.36;126463;1096;25858;-78
2021/05/20 05:42:45;;;;;;;7.60;5.00;;;;;;;10.93;76.98;98253.02;125910;1096;27099;-79
2021/05/20 05:45:12;;;;;;;6.00;4.60;;;;;;;10.93;76.20;98255.74;126256;1096;25861;-78
2021/05/20 05:47:40;;;;;;;6.90;4.85;;;;;;;10.98;76.65;98250.37;126155;1101;24115;-79
2021/05/20 05:50:11;;;;;;;7.67;4.50;;;;;;;11.05;76.83;98254.79;126217;1101;23026;-79
2021/05/20 05:52:39;;;;;;;5.63;3.63;;;;;;;11.13;76.38;98260.63;126417;1101;22755;-79
2021/05/20 05:55:08;;;;;;;7.85;4.70;;;;;;;11.21;75.49;98245.75;126459;1101;22876;-79
2021/05/20 05:57:36;;;;;;;4.40;3.85;;;;;;;11.32;74.96;98255.68;126437;1101;22755;-79
2021/05/20 06:00:05;;;;;;;5.15;3.60;;;;;;;11.42;74.87;98254.98;126022;1103;24370;-79
2021/05/20 06:02:45;;;;;;;5.90;3.65;;;;;;;11.53;74.19;98261.38;126149;1101;22722;-79
2021/05/20 06:05:13;;;;;;;6.47;3.67;;;;;;;11.65;72.74;98255.75;126286;1101;22796;-79
2021/05/20 06:07:45;;;;;;;3.98;3.18;;;;;;;11.77;73.45;98261.88;126168;1101;22783;-79
2021/05/20 06:10:13;;;;;;;5.50;3.55;;;;;;;11.89;73.52;98261.73;126249;1096;26292;-79
2021/05/20 06:12:41;;;;;;;5.20;3.17;;;;;;;11.99;71.59;98263.75;126398;1101;22764;-79
2021/05/20 06:15:09;;;;;;;6.90;4.50;;;;;;;12.02;70.38;98255.86;125918;1102;22734;-79
2021/05/20 06:17:38;;;;;;;5.55;3.08;;;;;;;12.09;69.41;98266.58;126257;1096;25864;-79
2021/05/20 06:20:07;;;;;;;5.30;3.50;;;;;;;12.17;71.10;98268.84;126315;1101;22734;-79
2021/05/20 06:22:36;;;;;;;6.85;2.80;;;;;;;12.26;69.35;98261.00;126284;1096;27171;-79
2021/05/20 06:25:17;;;;;;;4.93;2.57;;;;;;;12.35;70.34;98262.97;126405;1101;23740;-79
2021/05/20 06:27:45;;;;;;;4.65;3.15;;;;;;;12.46;70.66;98265.78;126377;1101;22741;-79
2021/05/20 06:30:13;;;;;;;3.20;2.60;;;;;;;12.56;69.39;98271.32;126130;1101;22796;-79
2021/05/20 06:32:41;;;;;;;4.95;2.80;;;;;;;12.63;66.18;98271.91;126140;1095;27202;-79
2021/05/20 06:35:08;;;;;;;5.35;2.70;;;;;;;12.69;66.05;98265.38;126409;1101;22745;-79
2021/05/20 06:37:37;;;;;;;5.85;2.65;;;;;;;12.79;64.97;98263.83;126032;1096;22819;-79
2021/05/20 06:40:06;;;;;;;4.33;2.10;;;;;;;12.88;65.08;98263.05;126076;1102;22741;-79
2021/05/20 06:42:33;;;;;;;5.05;2.48;;;;;;;13.02;64.71;98268.86;126166;1101;22777;-79
2021/05/20 06:45:01;;;;;;;4.13;2.40;;;;;;;13.13;64.89;98267.00;125889;1101;22744;-79
2021/05/20 06:47:28;;;;;;;3.20;1.80;;;;;;;13.28;62.87;98277.20;126023;1101;22758;-79
2021/05/20 06:49:56;;;;;;;2.30;2.00;;;;;;;13.37;61.51;98266.57;125893;1096;25838;-79
2021/05/20 06:52:23;;;;;;;6.65;2.40;;;;;;;13.41;63.54;98271.25;126103;1101;22747;-79
2021/05/20 06:54:51;;;;;;;3.13;2.33;;;;;;;13.50;62.82;98268.00;126126;1096;26241;-79
2021/05/20 06:57:25;;;;;;;4.50;2.30;;;;;;;13.57;61.69;98265.84;125934;1096;22919;-79
2021/05/20 07:00:03;;;;;;;5.90;2.30;;;;;;;13.70;61.60;98259.02;126136;1096;22749;-79
2021/05/20 07:02:31;;;;;;;2.63;2.13;;;;;;;13.86;62.57;98258.80;126158;1101;22917;-79
2021/05/20 07:04:59;;;;;;;3.25;2.48;;;;;;;13.97;62.00;98267.00;126135;1101;23554;-79
2021/05/20 07:07:28;;;;;;;3.10;2.30;;;;;;;13.95;60.30;98259.08;126165;1096;25839;-79
2021/05/20 07:09:55;;;;;;;;;;;;;;;13.91;61.71;98268.09;126247;1101;23526;-79
2021/05/20 07:12:23;;;;;;;5.00;2.40;;;;;;;13.81;60.90;98260.67;126656;1101;21526;-79
2021/05/20 07:14:51;;;;;;;4.60;2.40;;;;;;;13.71;61.43;98268.89;126331;1101;22765;-79
2021/05/20 07:17:19;;;;;;;5.45;2.55;;;;;;;13.56;63.37;98272.39;126728;1101;24142;-80
2021/05/20 07:19:47;;;;;;;2.80;2.00;;;;;;;13.39;62.43;98278.09;126583;1101;23190;-77
2021/05/20 07:22:15;;;;;;;9.25;2.80;;;;;;;13.24;61.77;98279.65;126289;1096;23629;-77
2021/05/20 07:24:44;;;;;;;3.15;2.45;;;;;;;13.17;62.56;98294.63;126206;1101;22734;-77
2021/05/20 07:27:13;;;;;;;5.95;2.80;;;;;;;13.05;64.29;98284.74;126285;1101;22880;-77
2021/05/20 07:29:41;;;;;;;10.60;4.20;;;;;;;13.00;66.02;98287.45;126180;1101;22807;-77
2021/05/20 07:32:10;;;;;;;4.75;3.00;;;;;;;12.99;65.44;98285.79;126038;1101;22772;-77
2021/05/20 07:34:38;;;;;;;7.10;3.30;;;;;;;13.03;65.29;98284.19;126075;1101;22754;-77
2021/05/20 07:37:07;;;;;;;4.00;2.97;;;;;;;13.05;63.81;98287.48;126086;1096;27132;-77
2021/05/20 07:39:34;;;;;;;5.63;2.50;;;;;;;13.08;63.26;98288.84;126100;1102;22820;-76
2021/05/20 07:42:16;;;;;;;4.65;2.90;;;;;;;13.10;63.00;98292.13;125842;1096;26241;-77
2021/05/20 07:44:44;;;;;;;6.20;3.53;;;;;;;13.12;65.08;98289.98;126084;1096;22919;-77
2021/05/20 07:47:11;;;;;;;10.70;3.40;;;;;;;13.08;64.03;98286.11;126088;1101;22718;-77
2021/05/20 07:49:40;;;;;;;5.65;3.65;;;;;;;13.09;63.49;98290.50;125818;1102;22788;-76
2021/05/20 07:52:08;;;;;;;5.33;3.75;;;;;;;13.10;62.86;98294.86;126087;1101;22852;-77
2021/05/20 07:54:35;;;;;;;6.35;4.80;;;;;;;13.09;64.34;98288.58;126066;1101;22737;-77
2021/05/20 07:57:03;;;;;;;5.80;4.45;;;;;;;13.11;64.33;98301.99;126071;1101;22820;-77
2021/05/20 07:59:31;;;;;;;5.30;3.90;;;;;;;13.08;63.14;98313.45;126120;1101;24441;-76
2021/05/20 08:04:37;;;;;;;5.00;3.73;;;;;;;13.03;61.97;98302.48;126085;1101;22810;-77
2021/05/20 08:07:58;;;;;;;4.95;3.70;;;;;;;13.00;64.60;98306.58;126187;1096;26237;-77
2021/05/20 08:12:39;;;;;;;6.53;3.77;;;;;;;13.04;66.29;98304.14;126050;1096;26204;-77
2021/05/20 08:15:08;;;;;;;7.20;4.60;;;;;;;13.14;66.07;98311.56;126081;1101;22744;-77
2021/05/20 08:17:36;;;;;;;8.23;3.85;;;;;;;13.19;62.19;98301.50;126083;1101;22748;-77
2021/05/20 08:20:06;;;;;;;6.05;3.50;;;;;;;13.20;63.20;98313.25;126065;1096;27262;-77
2021/05/20 08:22:35;;;;;;;6.05;3.40;;;;;;;13.20;61.68;98310.52;126142;1096;25864;-77
2021/05/20 08:25:07;;;;;;;5.80;3.40;;;;;;;13.22;62.36;98311.06;126131;1101;22845;-77
2021/05/20 08:27:35;;;;;;;6.20;3.60;;;;;;;13.26;64.44;98310.28;126148;1101;22734;-77
2021/05/20 08:30:05;;;;;;;7.05;3.55;;;;;;;13.28;63.68;98307.28;126096;1096;26270;-77
2021/05/20 08:32:32;;;;;;;6.83;4.30;;;;;;;13.30;64.81;98311.38;126146;1096;27346;-77
2021/05/20 08:35:00;;;;;;;4.60;3.90;;;;;;;13.33;62.34;98307.31;126030;1101;22778;-77
2021/05/20 08:37:28;;;;;;;4.85;3.15;;;;;;;13.50;59.63;98307.12;125843;1102;22812;-76
2021/05/20 08:39:56;;;;;;;5.95;2.80;;;;;;;13.91;59.85;98301.77;126238;1096;22734;-77
2021/05/20 08:42:23;;;;;;;4.20;3.45;;;;;;;14.29;58.15;98302.38;126183;1101;22838;-77
2021/05/20 08:44:51;;;;;;;8.30;3.60;;;;;;;14.33;58.23;98292.50;126169;1096;25865;-77
2021/05/20 08:47:19;;;;;;;4.85;3.95;;;;;;;14.30;58.38;98301.27;126025;1101;22749;-77
2021/05/20 08:49:47;;;;;;;4.20;3.00;;;;;;;14.26;57.75;98305.66;126075;1101;22768;-77
2021/05/20 08:52:15;;;;;;;5.95;3.40;;;;;;;14.18;57.34;98304.28;126103;1101;24377;-77
2021/05/20 08:54:42;;;;;;;5.75;3.55;;;;;;;14.12;57.61;98301.80;126216;1101;22740;-77
2021/05/20 08:57:10;;;;;;;4.70;3.75;;;;;;;14.12;58.16;98307.28;125870;1102;24377;-77
2021/05/20 08:59:38;;;;;;;7.15;4.15;;;;;;;14.15;59.50;98307.56;125890;1096;22764;-77
2021/05/20 09:02:06;;;;;;;4.95;3.75;;;;;;;14.18;60.18;98308.92;126085;1101;22745;-77
2021/05/20 09:04:34;;;;;;;4.83;3.95;;;;;;;14.22;59.60;98308.11;125879;1096;26200;-77
2021/05/20 09:07:09;;;;;;;5.10;4.25;;;;;;;14.27;59.60;98299.09;125999;1101;22903;-77
2021/05/20 09:09:39;;;;;;;4.63;4.00;;;;;;;14.42;57.73;98301.81;126140;1096;26837;-77
2021/05/20 09:12:08;;;;;;;3.85;3.45;;;;;;;14.72;56.70;98289.22;126160;1101;22737;-77
2021/05/20 09:14:37;;;;;;;;;;;;;;;14.86;53.97;98300.45;125905;1101;24415;-77
2021/05/20 09:17:07;;;;;;;;;;;;;;;14.93;54.97;98295.50;126116;1101;21462;-77
2021/05/20 09:19:35;;;;;;;4.15;3.70;;;;;;;15.04;57.81;98298.22;126091;1096;21490;-77
2021/05/20 09:22:17;;;;;;;4.17;3.23;;;;;;;15.16;58.00;98304.22;126132;1101;22820;-77
2021/05/20 09:24:50;;;;;;;7.15;3.10;;;;;;;15.11;53.49;98298.75;126114;1101;22765;-77
2021/05/20 09:27:45;;;;;;;5.33;2.70;;;;;;;15.07;54.06;98305.87;126150;1096;26264;-77
2021/05/20 09:30:19;;;;;;;7.00;3.00;;;;;;;14.91;55.68;98300.44;126157;1096;22769;-77
2021/05/20 09:32:52;;;;;;;5.77;2.60;;;;;;;14.83;55.33;98303.73;126116;1096;26209;-77
2021/05/20 09:35:23;;;;;;;4.93;2.17;;;;;;;14.75;54.82;98304.28;126077;1096;26238;-77
2021/05/20 09:38:12;;;;;;;4.30;2.45;;;;;;;14.64;54.61;98314.44;126082;1101;22719;-77
2021/05/20 09:40:44;;;;;;;2.73;1.60;;;;;;;14.47;52.03;98303.74;126114;1101;22761;-77
2021/05/20 09:43:24;;;;;;;2.23;1.70;;;;;;;14.34;53.26;98312.49;126051;1101;22762;-77
2021/05/20 09:45:54;;;;;;;3.45;1.75;;;;;;;14.31;55.10;98304.84;126051;1101;22761;-77
2021/05/20 09:48:26;;;;;;;3.90;2.00;;;;;;;14.58;53.46;98296.37;126170;1096;26237;-77
2021/05/20 09:50:58;;;;;;;2.10;1.90;;;;;;;14.88;54.45;98298.25;126059;1096;22777;-77
2021/05/20 09:53:28;;;;;;;3.05;1.90;;;;;;;15.26;53.65;98295.13;126116;1096;27161;-77
2021/05/20 09:55:59;;;;;;;3.57;2.23;;;;;;;15.50;52.44;98292.57;126053;1096;26226;-77
2021/05/20 09:58:28;;;;;;;3.17;2.67;;;;;;;15.72;54.76;98298.51;126096;1101;24415;-77
2021/05/20 10:00:58;;;;;;;7.87;2.50;;;;;;;15.91;54.06;98295.94;126121;1101;22761;-77
2021/05/20 10:03:28;;;;;;;3.03;1.80;;;;;;;16.16;53.13;98285.08;126068;1101;22769;-77
2021/05/20 10:05:59;;;;;;;10.40;2.60;;;;;;;16.29;53.62;98285.25;126075;1096;26254;-77
2021/05/20 10:08:32;;;;;;;2.58;1.43;;;;;;;16.56;49.33;98281.19;125836;1102;22806;-77
2021/05/20 10:11:04;;;;;;;2.45;1.10;;;;;;;16.53;46.77;98281.75;126051;1101;22875;-77
2021/05/20 10:13:46;;;;;;;2.55;1.10;;;;;;;16.43;45.94;98282.67;125917;1101;22759;-77
2021/05/20 10:16:14;;;;;;;1.40;0.60;;;;;;;16.06;42.28;98274.97;126077;1096;27395;-77
2021/05/20 10:18:42;;;;;;;2.90;0.60;;;;;;;15.82;41.64;98275.68;125825;1102;22827;-77
2021/05/20 10:21:10;;;;;;;2.53;0.90;;;;;;;15.85;43.05;98280.61;126151;1101;22734;-77
2021/05/20 10:23:40;;;;;;;3.63;0.90;;;;;;;16.01;45.38;98286.83;125829;1103;22730;-77
2021/05/20 10:26:12;;;;;;;3.60;0.90;;;;;;;16.15;44.66;98270.53;125835;1102;22769;-77
2021/05/20 10:28:42;;;;;;;0.80;0.50;;;;;;;16.32;44.67;98279.19;126087;1101;22797;-77
2021/05/20 10:31:26;;;;;;;1.73;0.90;;;;;;;16.50;43.30;98263.92;126057;1101;24488;-77
2021/05/20 10:33:54;;;;;;;4.70;0.70;;;;;;;16.61;43.05;98277.55;126063;1096;27498;-77
2021/05/20 10:36:26;;;;;;;2.10;0.70;;;;;;;16.63;39.12;98264.36;126178;1101;24435;-77
2021/05/20 10:38:56;;;;;;;3.75;0.63;;;;;;;16.74;42.48;98271.39;126138;1101;22738;-77
2021/05/20 10:41:43;;;;;;;2.78;1.00;;;;;;;16.86;38.82;98274.59;126134;1101;22769;-77
2021/05/20 10:44:12;;;;;;;1.43;0.60;;;;;;;17.04;38.73;98277.72;126110;1101;24561;-75
2021/05/20 10:47:03;;;;;;;5.47;1.20;;;;;;;17.13;38.07;98284.22;126133;1096;24164;-77
2021/05/20 10:49:51;;;;;;;3.75;0.75;;;;;;;17.20;39.75;98275.62;126301;1101;22734;-77
2021/05/20 10:52:38;;;;;;;1.83;0.50;;;;;;;17.34;41.70;98282.05;125913;1101;23209;-77
2021/05/20 10:55:08;;;;;;;1.35;0.53;;;;;;;17.01;39.36;98287.36;125864;1102;22722;-77
2021/05/20 10:58:01;;;;;;;0.85;0.40;;;;;;;16.59;38.50;98293.52;126102;1101;22759;-77
2021/05/20 11:00:31;;;;;;;0.63;0.60;;;;;;;16.46;39.73;98293.07;126160;1097;26200;-77
2021/05/20 11:03:01;;;;;;;1.33;0.30;;;;;;;16.63;38.27;98276.17;126199;1101;22784;-77
2021/05/20 11:05:41;;;;;;;0.53;0.40;;;;;;;16.82;35.26;98286.42;126120;1101;22752;-77
2021/05/20 11:08:29;;;;;;;2.05;0.63;;;;;;;16.89;36.28;98297.94;126129;1102;23165;-77
2021/05/20 11:11:00;;;;;;;2.13;0.50;;;;;;;17.04;38.35;98277.72;126116;1101;22819;-77
2021/05/20 11:13:39;;;;;;;1.17;0.40;;;;;;;17.18;41.01;98289.66;125868;1101;24376;-77
2021/05/20 11:16:29;;;;;;;1.78;0.50;;;;;;;17.49;42.00;98269.20;125871;1096;25864;-77
2021/05/20 11:19:25;;;;;;;1.75;0.40;;;;;;;17.64;37.87;98286.34;126159;1101;22734;-77
2021/05/20 11:22:01;;;;;;;0.88;0.50;;;;;;;17.78;39.55;98282.88;125979;1096;22762;-77
2021/05/20 11:24:34;;;;;;;2.73;0.40;;;;;;;17.80;37.30;98275.94;125867;1102;24398;-77
2021/05/20 11:27:05;;;;;;;3.05;0.40;;;;;;;17.81;41.20;98285.02;125864;1096;22750;-77
2021/05/20 11:29:37;;;;;;;0.98;0.60;;;;;;;17.93;38.02;98276.34;125910;1097;24539;-77
2021/05/20 11:32:32;;;;;;;1.28;0.60;;;;;;;18.02;39.65;98283.66;125778;1104;22751;-77
2021/05/20 11:36:10;;;;;;;2.58;0.80;;;;;;;18.20;38.71;98272.89;125741;1104;22728;-77
2021/05/20 11:38:04;;;;;;;0.83;0.50;;;;;;;18.35;36.42;98275.42;125630;1097;26207;-77
2021/05/20 11:40:34;;;;;;;0.40;0.40;;;;;;;18.47;36.77;98285.14;125775;1104;22793;-77
2021/05/20 11:43:28;;;;;;;0.93;0.50;;;;;;;18.59;38.02;98274.46;125805;1097;25980;-77
2021/05/20 11:45:58;;;;;;;2.15;0.95;;;;;;;18.64;38.83;98282.66;125782;1097;26853;-77
2021/05/20 11:48:26;;;;;;;1.75;0.60;;;;;;;18.56;36.58;98277.84;125795;1097;22751;-77
2021/05/20 11:50:54;;;;;;;0.67;0.50;;;;;;;18.39;37.23;98281.15;125777;1096;26102;-77
2021/05/20 11:53:22;;;;;;;0.80;0.60;;;;;;;18.20;36.63;98282.00;125785;1104;22764;-77